sensor_id;sensor_type;location;lat;lon;timestamp;P1;durP1;ratioP1;P2;durP2;ratioP2
3849;SDS011;1940;51.052;13.678;2023-04-07T00:00:56;16.33;;;9.30;;
3849;SDS011;1940;51.052;13.678;2023-04-07T00:03:21;17.33;;;9.40;;
3849;SDS011;1940;51.052;13.678;2023-04-07T00:05:47;18.53;;;10.77;;
3849;SDS011;1940;51.052;13.678;2023-04-07T00:08:13;21.20;;;10.20;;
3849;SDS011;1940;51.052;13.678;2023-04-07T00:10:38;14.17;;;10.00;;
3849;SDS011;1940;51.052;13.678;2023-04-07T00:13:04;16.20;;;10.87;;
3849;SDS011;1940;51.052;13.678;2023-04-07T00:15:29;16.53;;;9.17;;
3849;SDS011;1940;51.052;13.678;2023-04-07T00:17:55;14.10;;;9.10;;
3849;SDS011;1940;51.052;13.678;2023-04-07T00:20:21;18.87;;;9.87;;
3849;SDS011;1940;51.052;13.678;2023-04-07T00:22:47;17.83;;;9.53;;
3849;SDS011;1940;51.052;13.678;2023-04-07T00:25:12;14.47;;;9.33;;
3849;SDS011;1940;51.052;13.678;2023-04-07T00:27:38;15.20;;;9.80;;
3849;SDS011;1940;51.052;13.678;2023-04-07T00:30:03;13.70;;;9.73;;
3849;SDS011;1940;51.052;13.678;2023-04-07T00:32:30;13.10;;;8.83;;
3849;SDS011;1940;51.052;13.678;2023-04-07T00:34:55;19.20;;;9.40;;
3849;SDS011;1940;51.052;13.678;2023-04-07T00:37:21;15.00;;;9.30;;
3849;SDS011;1940;51.052;13.678;2023-04-07T00:39:46;14.63;;;9.57;;
3849;SDS011;1940;51.052;13.678;2023-04-07T00:42:12;15.37;;;9.13;;
3849;SDS011;1940;51.052;13.678;2023-04-07T00:44:38;18.67;;;10.27;;
3849;SDS011;1940;51.052;13.678;2023-04-07T00:47:03;14.70;;;9.47;;
3849;SDS011;1940;51.052;13.678;2023-04-07T00:49:29;18.30;;;10.43;;
3849;SDS011;1940;51.052;13.678;2023-04-07T00:51:58;16.53;;;9.60;;
3849;SDS011;1940;51.052;13.678;2023-04-07T00:54:24;16.13;;;8.63;;
3849;SDS011;1940;51.052;13.678;2023-04-07T00:56:49;17.07;;;10.07;;
3849;SDS011;1940;51.052;13.678;2023-04-07T00:59:16;21.27;;;10.30;;
3849;SDS011;1940;51.052;13.678;2023-04-07T01:01:43;14.97;;;9.30;;
3849;SDS011;1940;51.052;13.678;2023-04-07T01:07:08;17.10;;;9.97;;
3849;SDS011;1940;51.052;13.678;2023-04-07T01:09:47;15.23;;;9.20;;
3849;SDS011;1940;51.052;13.678;2023-04-07T01:14:50;18.90;;;10.27;;
3849;SDS011;1940;51.052;13.678;2023-04-07T01:17:22;15.30;;;9.00;;
3849;SDS011;1940;51.052;13.678;2023-04-07T01:20:01;13.30;;;9.00;;
3849;SDS011;1940;51.052;13.678;2023-04-07T01:23:14;19.50;;;10.27;;
3849;SDS011;1940;51.052;13.678;2023-04-07T01:25:26;15.97;;;9.57;;
3849;SDS011;1940;51.052;13.678;2023-04-07T01:28:19;17.93;;;9.50;;
3849;SDS011;1940;51.052;13.678;2023-04-07T01:31:10;15.23;;;8.97;;
3849;SDS011;1940;51.052;13.678;2023-04-07T01:33:38;13.90;;;8.63;;
3849;SDS011;1940;51.052;13.678;2023-04-07T01:36:07;14.13;;;9.33;;
3849;SDS011;1940;51.052;13.678;2023-04-07T01:38:34;16.00;;;8.60;;
3849;SDS011;1940;51.052;13.678;2023-04-07T01:41:01;17.57;;;8.83;;
3849;SDS011;1940;51.052;13.678;2023-04-07T01:43:27;15.53;;;9.20;;
3849;SDS011;1940;51.052;13.678;2023-04-07T01:45:54;15.43;;;9.60;;
3849;SDS011;1940;51.052;13.678;2023-04-07T01:48:21;16.33;;;9.60;;
3849;SDS011;1940;51.052;13.678;2023-04-07T01:50:47;16.00;;;9.23;;
3849;SDS011;1940;51.052;13.678;2023-04-07T01:53:14;13.37;;;8.67;;
3849;SDS011;1940;51.052;13.678;2023-04-07T01:55:41;18.43;;;8.90;;
3849;SDS011;1940;51.052;13.678;2023-04-07T01:58:08;18.77;;;10.70;;
3849;SDS011;1940;51.052;13.678;2023-04-07T02:00:33;15.90;;;9.37;;
3849;SDS011;1940;51.052;13.678;2023-04-07T02:03:03;15.73;;;8.90;;
3849;SDS011;1940;51.052;13.678;2023-04-07T02:05:33;15.63;;;9.30;;
3849;SDS011;1940;51.052;13.678;2023-04-07T02:08:01;13.87;;;9.53;;
3849;SDS011;1940;51.052;13.678;2023-04-07T02:10:29;13.50;;;8.23;;
3849;SDS011;1940;51.052;13.678;2023-04-07T02:12:59;11.23;;;7.87;;
3849;SDS011;1940;51.052;13.678;2023-04-07T02:15:27;14.87;;;9.20;;
3849;SDS011;1940;51.052;13.678;2023-04-07T02:17:56;13.90;;;8.57;;
3849;SDS011;1940;51.052;13.678;2023-04-07T02:20:23;16.23;;;8.87;;
3849;SDS011;1940;51.052;13.678;2023-04-07T02:22:49;12.90;;;8.07;;
3849;SDS011;1940;51.052;13.678;2023-04-07T02:25:24;13.00;;;8.03;;
3849;SDS011;1940;51.052;13.678;2023-04-07T02:27:51;12.60;;;8.27;;
3849;SDS011;1940;51.052;13.678;2023-04-07T02:30:18;13.07;;;8.03;;
3849;SDS011;1940;51.052;13.678;2023-04-07T02:32:44;15.83;;;8.50;;
3849;SDS011;1940;51.052;13.678;2023-04-07T02:35:10;13.20;;;8.10;;
3849;SDS011;1940;51.052;13.678;2023-04-07T02:37:36;14.60;;;9.30;;
3849;SDS011;1940;51.052;13.678;2023-04-07T02:40:02;11.77;;;8.10;;
3849;SDS011;1940;51.052;13.678;2023-04-07T02:42:28;13.07;;;8.40;;
3849;SDS011;1940;51.052;13.678;2023-04-07T02:44:54;14.73;;;8.03;;
3849;SDS011;1940;51.052;13.678;2023-04-07T02:47:20;15.33;;;8.60;;
3849;SDS011;1940;51.052;13.678;2023-04-07T02:49:45;14.83;;;8.87;;
3849;SDS011;1940;51.052;13.678;2023-04-07T02:52:11;15.57;;;8.60;;
3849;SDS011;1940;51.052;13.678;2023-04-07T02:54:37;14.30;;;9.10;;
3849;SDS011;1940;51.052;13.678;2023-04-07T02:57:02;11.80;;;7.97;;
3849;SDS011;1940;51.052;13.678;2023-04-07T02:59:28;13.37;;;8.10;;
3849;SDS011;1940;51.052;13.678;2023-04-07T03:01:53;11.13;;;7.80;;
3849;SDS011;1940;51.052;13.678;2023-04-07T03:04:19;13.07;;;8.53;;
3849;SDS011;1940;51.052;13.678;2023-04-07T03:06:45;13.80;;;7.90;;
3849;SDS011;1940;51.052;13.678;2023-04-07T03:09:10;11.17;;;7.80;;
3849;SDS011;1940;51.052;13.678;2023-04-07T03:11:36;10.63;;;7.40;;
3849;SDS011;1940;51.052;13.678;2023-04-07T03:14:02;17.20;;;7.93;;
3849;SDS011;1940;51.052;13.678;2023-04-07T03:16:27;15.70;;;8.80;;
3849;SDS011;1940;51.052;13.678;2023-04-07T03:18:53;16.90;;;8.67;;
3849;SDS011;1940;51.052;13.678;2023-04-07T03:21:18;13.33;;;7.97;;
3849;SDS011;1940;51.052;13.678;2023-04-07T03:23:44;15.53;;;7.23;;
3849;SDS011;1940;51.052;13.678;2023-04-07T03:26:09;10.97;;;7.60;;
3849;SDS011;1940;51.052;13.678;2023-04-07T03:28:35;12.70;;;8.10;;
3849;SDS011;1940;51.052;13.678;2023-04-07T03:31:00;17.30;;;7.83;;
3849;SDS011;1940;51.052;13.678;2023-04-07T03:33:26;14.47;;;7.97;;
3849;SDS011;1940;51.052;13.678;2023-04-07T03:35:52;13.20;;;8.03;;
3849;SDS011;1940;51.052;13.678;2023-04-07T03:38:17;14.20;;;8.37;;
3849;SDS011;1940;51.052;13.678;2023-04-07T03:40:42;12.27;;;8.00;;
3849;SDS011;1940;51.052;13.678;2023-04-07T03:43:08;11.13;;;7.23;;
3849;SDS011;1940;51.052;13.678;2023-04-07T03:45:38;12.63;;;7.63;;
3849;SDS011;1940;51.052;13.678;2023-04-07T03:48:03;12.90;;;7.83;;
3849;SDS011;1940;51.052;13.678;2023-04-07T03:50:29;11.93;;;8.00;;
3849;SDS011;1940;51.052;13.678;2023-04-07T03:52:54;13.90;;;8.50;;
3849;SDS011;1940;51.052;13.678;2023-04-07T03:55:20;12.77;;;7.90;;
3849;SDS011;1940;51.052;13.678;2023-04-07T03:57:46;14.27;;;8.20;;
3849;SDS011;1940;51.052;13.678;2023-04-07T04:00:12;12.17;;;7.50;;
3849;SDS011;1940;51.052;13.678;2023-04-07T04:02:38;12.83;;;7.77;;
3849;SDS011;1940;51.052;13.678;2023-04-07T04:05:03;13.37;;;8.03;;
3849;SDS011;1940;51.052;13.678;2023-04-07T04:07:29;12.90;;;8.20;;
3849;SDS011;1940;51.052;13.678;2023-04-07T04:09:55;13.37;;;8.47;;
3849;SDS011;1940;51.052;13.678;2023-04-07T04:12:20;11.53;;;7.53;;
3849;SDS011;1940;51.052;13.678;2023-04-07T04:14:46;12.07;;;7.30;;
3849;SDS011;1940;51.052;13.678;2023-04-07T04:17:11;15.43;;;8.30;;
3849;SDS011;1940;51.052;13.678;2023-04-07T04:19:37;11.60;;;7.50;;
3849;SDS011;1940;51.052;13.678;2023-04-07T04:22:02;17.40;;;8.40;;
3849;SDS011;1940;51.052;13.678;2023-04-07T04:24:28;13.47;;;7.90;;
3849;SDS011;1940;51.052;13.678;2023-04-07T04:26:53;11.53;;;7.53;;
3849;SDS011;1940;51.052;13.678;2023-04-07T04:29:20;12.23;;;8.10;;
3849;SDS011;1940;51.052;13.678;2023-04-07T04:31:46;12.30;;;7.83;;
3849;SDS011;1940;51.052;13.678;2023-04-07T04:34:11;13.50;;;8.10;;
3849;SDS011;1940;51.052;13.678;2023-04-07T04:36:37;13.10;;;7.73;;
3849;SDS011;1940;51.052;13.678;2023-04-07T04:39:04;13.10;;;8.60;;
3849;SDS011;1940;51.052;13.678;2023-04-07T04:41:30;12.10;;;7.70;;
3849;SDS011;1940;51.052;13.678;2023-04-07T04:43:55;12.87;;;7.60;;
3849;SDS011;1940;51.052;13.678;2023-04-07T04:46:21;14.80;;;8.40;;
3849;SDS011;1940;51.052;13.678;2023-04-07T04:48:46;14.00;;;8.50;;
3849;SDS011;1940;51.052;13.678;2023-04-07T04:51:12;12.50;;;7.60;;
3849;SDS011;1940;51.052;13.678;2023-04-07T04:53:37;12.40;;;8.10;;
3849;SDS011;1940;51.052;13.678;2023-04-07T04:56:03;16.27;;;8.47;;
3849;SDS011;1940;51.052;13.678;2023-04-07T04:58:29;15.43;;;8.37;;
3849;SDS011;1940;51.052;13.678;2023-04-07T05:00:55;12.27;;;7.80;;
3849;SDS011;1940;51.052;13.678;2023-04-07T05:03:22;14.97;;;8.00;;
3849;SDS011;1940;51.052;13.678;2023-04-07T05:05:49;10.50;;;7.57;;
3849;SDS011;1940;51.052;13.678;2023-04-07T05:08:14;13.73;;;7.93;;
3849;SDS011;1940;51.052;13.678;2023-04-07T05:10:40;12.93;;;7.40;;
3849;SDS011;1940;51.052;13.678;2023-04-07T05:13:06;12.10;;;7.53;;
3849;SDS011;1940;51.052;13.678;2023-04-07T05:15:31;19.90;;;8.40;;
3849;SDS011;1940;51.052;13.678;2023-04-07T05:17:56;11.43;;;7.80;;
3849;SDS011;1940;51.052;13.678;2023-04-07T05:20:22;11.57;;;7.57;;
3849;SDS011;1940;51.052;13.678;2023-04-07T05:22:47;14.83;;;7.27;;
3849;SDS011;1940;51.052;13.678;2023-04-07T05:25:13;11.83;;;7.20;;
3849;SDS011;1940;51.052;13.678;2023-04-07T05:27:38;16.43;;;7.23;;
3849;SDS011;1940;51.052;13.678;2023-04-07T05:30:05;17.30;;;6.83;;
3849;SDS011;1940;51.052;13.678;2023-04-07T05:32:31;13.90;;;8.07;;
3849;SDS011;1940;51.052;13.678;2023-04-07T05:34:56;11.83;;;7.40;;
3849;SDS011;1940;51.052;13.678;2023-04-07T05:37:22;14.00;;;8.17;;
3849;SDS011;1940;51.052;13.678;2023-04-07T05:39:47;11.20;;;7.23;;
3849;SDS011;1940;51.052;13.678;2023-04-07T05:42:13;11.50;;;6.90;;
3849;SDS011;1940;51.052;13.678;2023-04-07T05:44:38;11.23;;;7.10;;
3849;SDS011;1940;51.052;13.678;2023-04-07T05:47:04;14.90;;;8.23;;
3849;SDS011;1940;51.052;13.678;2023-04-07T05:49:33;11.03;;;6.50;;
3849;SDS011;1940;51.052;13.678;2023-04-07T05:51:59;10.47;;;6.37;;
3849;SDS011;1940;51.052;13.678;2023-04-07T05:54:24;11.00;;;6.60;;
3849;SDS011;1940;51.052;13.678;2023-04-07T05:56:50;11.33;;;6.27;;
3849;SDS011;1940;51.052;13.678;2023-04-07T05:59:15;9.63;;;5.90;;
3849;SDS011;1940;51.052;13.678;2023-04-07T06:01:41;9.73;;;6.10;;
3849;SDS011;1940;51.052;13.678;2023-04-07T06:04:07;8.70;;;6.10;;
3849;SDS011;1940;51.052;13.678;2023-04-07T06:06:32;11.70;;;7.50;;
3849;SDS011;1940;51.052;13.678;2023-04-07T06:08:57;8.60;;;5.93;;
3849;SDS011;1940;51.052;13.678;2023-04-07T06:11:24;9.40;;;6.00;;
3849;SDS011;1940;51.052;13.678;2023-04-07T06:13:50;10.57;;;6.70;;
3849;SDS011;1940;51.052;13.678;2023-04-07T06:16:15;10.30;;;5.87;;
3849;SDS011;1940;51.052;13.678;2023-04-07T06:18:41;7.73;;;5.77;;
3849;SDS011;1940;51.052;13.678;2023-04-07T06:21:06;7.93;;;6.00;;
3849;SDS011;1940;51.052;13.678;2023-04-07T06:23:32;9.10;;;5.83;;
3849;SDS011;1940;51.052;13.678;2023-04-07T06:25:57;9.57;;;6.17;;
3849;SDS011;1940;51.052;13.678;2023-04-07T06:28:23;12.47;;;6.40;;
3849;SDS011;1940;51.052;13.678;2023-04-07T06:30:48;8.20;;;5.80;;
3849;SDS011;1940;51.052;13.678;2023-04-07T06:33:14;10.93;;;7.00;;
3849;SDS011;1940;51.052;13.678;2023-04-07T06:35:40;14.20;;;7.00;;
3849;SDS011;1940;51.052;13.678;2023-04-07T06:38:05;10.03;;;6.50;;
3849;SDS011;1940;51.052;13.678;2023-04-07T06:40:31;11.90;;;7.13;;
3849;SDS011;1940;51.052;13.678;2023-04-07T06:42:57;9.40;;;6.17;;
3849;SDS011;1940;51.052;13.678;2023-04-07T06:45:22;9.33;;;6.47;;
3849;SDS011;1940;51.052;13.678;2023-04-07T06:47:48;9.00;;;6.53;;
3849;SDS011;1940;51.052;13.678;2023-04-07T06:50:13;10.33;;;6.70;;
3849;SDS011;1940;51.052;13.678;2023-04-07T06:52:39;12.97;;;6.67;;
3849;SDS011;1940;51.052;13.678;2023-04-07T06:55:05;12.80;;;7.13;;
3849;SDS011;1940;51.052;13.678;2023-04-07T06:57:32;11.07;;;7.57;;
3849;SDS011;1940;51.052;13.678;2023-04-07T06:59:57;10.10;;;6.83;;
3849;SDS011;1940;51.052;13.678;2023-04-07T07:02:23;9.97;;;6.30;;
3849;SDS011;1940;51.052;13.678;2023-04-07T07:04:49;15.20;;;6.27;;
3849;SDS011;1940;51.052;13.678;2023-04-07T07:07:14;10.27;;;6.47;;
3849;SDS011;1940;51.052;13.678;2023-04-07T07:09:40;10.90;;;6.70;;
3849;SDS011;1940;51.052;13.678;2023-04-07T07:12:05;10.13;;;6.77;;
3849;SDS011;1940;51.052;13.678;2023-04-07T07:14:31;11.13;;;6.90;;
3849;SDS011;1940;51.052;13.678;2023-04-07T07:16:56;9.90;;;6.70;;
3849;SDS011;1940;51.052;13.678;2023-04-07T07:19:22;9.03;;;6.20;;
3849;SDS011;1940;51.052;13.678;2023-04-07T07:21:47;12.00;;;6.57;;
3849;SDS011;1940;51.052;13.678;2023-04-07T07:24:13;8.40;;;6.40;;
3849;SDS011;1940;51.052;13.678;2023-04-07T07:26:38;11.13;;;6.30;;
3849;SDS011;1940;51.052;13.678;2023-04-07T07:29:05;9.90;;;6.87;;
3849;SDS011;1940;51.052;13.678;2023-04-07T07:31:31;13.33;;;7.10;;
3849;SDS011;1940;51.052;13.678;2023-04-07T07:33:56;11.30;;;6.67;;
3849;SDS011;1940;51.052;13.678;2023-04-07T07:36:22;8.67;;;6.40;;
3849;SDS011;1940;51.052;13.678;2023-04-07T07:38:49;8.87;;;6.30;;
3849;SDS011;1940;51.052;13.678;2023-04-07T07:41:15;10.70;;;6.90;;
3849;SDS011;1940;51.052;13.678;2023-04-07T07:43:41;10.73;;;6.73;;
3849;SDS011;1940;51.052;13.678;2023-04-07T07:46:06;9.13;;;6.87;;
3849;SDS011;1940;51.052;13.678;2023-04-07T07:48:32;12.07;;;6.93;;
3849;SDS011;1940;51.052;13.678;2023-04-07T07:50:58;10.90;;;6.77;;
3849;SDS011;1940;51.052;13.678;2023-04-07T07:53:23;9.07;;;5.97;;
3849;SDS011;1940;51.052;13.678;2023-04-07T07:55:49;9.53;;;6.93;;
3849;SDS011;1940;51.052;13.678;2023-04-07T07:58:14;12.33;;;7.87;;
3849;SDS011;1940;51.052;13.678;2023-04-07T08:00:40;13.13;;;8.00;;
3849;SDS011;1940;51.052;13.678;2023-04-07T08:03:06;11.67;;;8.00;;
3849;SDS011;1940;51.052;13.678;2023-04-07T08:05:31;13.13;;;7.97;;
3849;SDS011;1940;51.052;13.678;2023-04-07T08:07:57;10.00;;;7.80;;
3849;SDS011;1940;51.052;13.678;2023-04-07T08:10:22;12.63;;;7.80;;
3849;SDS011;1940;51.052;13.678;2023-04-07T08:12:49;10.47;;;6.90;;
3849;SDS011;1940;51.052;13.678;2023-04-07T08:15:14;12.43;;;7.90;;
3849;SDS011;1940;51.052;13.678;2023-04-07T08:17:40;12.90;;;7.57;;
3849;SDS011;1940;51.052;13.678;2023-04-07T08:20:06;12.50;;;7.90;;
3849;SDS011;1940;51.052;13.678;2023-04-07T08:22:32;11.67;;;8.20;;
3849;SDS011;1940;51.052;13.678;2023-04-07T08:24:58;14.13;;;8.67;;
3849;SDS011;1940;51.052;13.678;2023-04-07T08:27:23;12.43;;;7.70;;
3849;SDS011;1940;51.052;13.678;2023-04-07T08:29:57;12.63;;;8.30;;
3849;SDS011;1940;51.052;13.678;2023-04-07T08:32:24;13.50;;;7.73;;
3849;SDS011;1940;51.052;13.678;2023-04-07T08:34:50;13.67;;;8.17;;
3849;SDS011;1940;51.052;13.678;2023-04-07T08:37:15;14.27;;;9.10;;
3849;SDS011;1940;51.052;13.678;2023-04-07T08:39:41;14.77;;;8.73;;
3849;SDS011;1940;51.052;13.678;2023-04-07T08:42:07;13.10;;;7.90;;
3849;SDS011;1940;51.052;13.678;2023-04-07T08:44:34;15.97;;;8.70;;
3849;SDS011;1940;51.052;13.678;2023-04-07T08:47:02;14.30;;;8.00;;
3849;SDS011;1940;51.052;13.678;2023-04-07T08:49:31;13.03;;;8.10;;
3849;SDS011;1940;51.052;13.678;2023-04-07T08:51:59;15.23;;;8.90;;
3849;SDS011;1940;51.052;13.678;2023-04-07T08:54:30;14.27;;;8.83;;
3849;SDS011;1940;51.052;13.678;2023-04-07T08:56:57;13.03;;;8.80;;
3849;SDS011;1940;51.052;13.678;2023-04-07T08:59:23;11.87;;;7.50;;
3849;SDS011;1940;51.052;13.678;2023-04-07T09:01:52;12.87;;;7.10;;
3849;SDS011;1940;51.052;13.678;2023-04-07T09:04:18;12.40;;;8.20;;
3849;SDS011;1940;51.052;13.678;2023-04-07T09:06:44;12.00;;;7.63;;
3849;SDS011;1940;51.052;13.678;2023-04-07T09:09:10;14.03;;;8.30;;
3849;SDS011;1940;51.052;13.678;2023-04-07T09:11:37;12.23;;;7.70;;
3849;SDS011;1940;51.052;13.678;2023-04-07T09:14:03;12.27;;;7.50;;
3849;SDS011;1940;51.052;13.678;2023-04-07T09:16:29;11.73;;;7.50;;
3849;SDS011;1940;51.052;13.678;2023-04-07T09:18:55;12.03;;;7.73;;
3849;SDS011;1940;51.052;13.678;2023-04-07T09:21:22;12.00;;;7.90;;
3849;SDS011;1940;51.052;13.678;2023-04-07T09:23:48;12.87;;;7.60;;
3849;SDS011;1940;51.052;13.678;2023-04-07T09:26:17;18.73;;;7.43;;
3849;SDS011;1940;51.052;13.678;2023-04-07T09:28:53;21.53;;;7.37;;
3849;SDS011;1940;51.052;13.678;2023-04-07T09:31:21;11.80;;;7.80;;
3849;SDS011;1940;51.052;13.678;2023-04-07T09:33:50;12.70;;;7.47;;
3849;SDS011;1940;51.052;13.678;2023-04-07T09:36:16;12.63;;;7.30;;
3849;SDS011;1940;51.052;13.678;2023-04-07T09:38:42;10.70;;;7.30;;
3849;SDS011;1940;51.052;13.678;2023-04-07T09:41:13;10.03;;;6.33;;
3849;SDS011;1940;51.052;13.678;2023-04-07T09:43:43;9.60;;;6.30;;
3849;SDS011;1940;51.052;13.678;2023-04-07T09:46:11;10.30;;;6.17;;
3849;SDS011;1940;51.052;13.678;2023-04-07T09:48:41;8.97;;;5.90;;
3849;SDS011;1940;51.052;13.678;2023-04-07T09:51:09;9.70;;;5.80;;
3849;SDS011;1940;51.052;13.678;2023-04-07T09:53:40;18.93;;;6.53;;
3849;SDS011;1940;51.052;13.678;2023-04-07T09:56:09;9.17;;;5.83;;
3849;SDS011;1940;51.052;13.678;2023-04-07T09:58:38;11.33;;;6.20;;
3849;SDS011;1940;51.052;13.678;2023-04-07T10:01:07;8.50;;;5.87;;
3849;SDS011;1940;51.052;13.678;2023-04-07T10:03:37;9.60;;;5.57;;
3849;SDS011;1940;51.052;13.678;2023-04-07T10:06:03;10.90;;;6.07;;
3849;SDS011;1940;51.052;13.678;2023-04-07T10:08:33;12.07;;;5.93;;
3849;SDS011;1940;51.052;13.678;2023-04-07T10:11:00;7.70;;;5.20;;
3849;SDS011;1940;51.052;13.678;2023-04-07T10:13:30;11.43;;;5.40;;
3849;SDS011;1940;51.052;13.678;2023-04-07T10:15:56;8.80;;;5.70;;
3849;SDS011;1940;51.052;13.678;2023-04-07T10:18:25;12.20;;;5.60;;
3849;SDS011;1940;51.052;13.678;2023-04-07T10:20:55;11.10;;;5.20;;
3849;SDS011;1940;51.052;13.678;2023-04-07T10:23:33;8.13;;;5.40;;
3849;SDS011;1940;51.052;13.678;2023-04-07T10:26:07;9.80;;;5.40;;
3849;SDS011;1940;51.052;13.678;2023-04-07T10:28:34;9.20;;;5.50;;
3849;SDS011;1940;51.052;13.678;2023-04-07T10:31:03;8.90;;;5.37;;
3849;SDS011;1940;51.052;13.678;2023-04-07T10:33:44;9.23;;;5.20;;
3849;SDS011;1940;51.052;13.678;2023-04-07T10:36:11;7.43;;;5.10;;
3849;SDS011;1940;51.052;13.678;2023-04-07T10:38:37;11.33;;;5.80;;
3849;SDS011;1940;51.052;13.678;2023-04-07T10:43:58;7.67;;;5.50;;
3849;SDS011;1940;51.052;13.678;2023-04-07T10:46:24;8.07;;;5.17;;
3849;SDS011;1940;51.052;13.678;2023-04-07T10:49:10;7.97;;;5.10;;
3849;SDS011;1940;51.052;13.678;2023-04-07T10:51:37;7.87;;;4.90;;
3849;SDS011;1940;51.052;13.678;2023-04-07T10:54:15;8.57;;;5.10;;
3849;SDS011;1940;51.052;13.678;2023-04-07T10:59:40;6.50;;;4.70;;
3849;SDS011;1940;51.052;13.678;2023-04-07T11:04:51;7.63;;;5.40;;
3849;SDS011;1940;51.052;13.678;2023-04-07T11:07:17;14.03;;;5.90;;
3849;SDS011;1940;51.052;13.678;2023-04-07T11:09:43;6.03;;;4.43;;
3849;SDS011;1940;51.052;13.678;2023-04-07T11:12:22;8.50;;;5.40;;
3849;SDS011;1940;51.052;13.678;2023-04-07T11:14:48;7.60;;;5.30;;
3849;SDS011;1940;51.052;13.678;2023-04-07T11:17:14;10.23;;;5.60;;
3849;SDS011;1940;51.052;13.678;2023-04-07T11:19:51;10.13;;;5.40;;
3849;SDS011;1940;51.052;13.678;2023-04-07T11:22:17;8.30;;;5.37;;
3849;SDS011;1940;51.052;13.678;2023-04-07T11:24:44;9.63;;;5.97;;
3849;SDS011;1940;51.052;13.678;2023-04-07T11:27:13;12.63;;;6.00;;
3849;SDS011;1940;51.052;13.678;2023-04-07T11:29:40;9.83;;;6.23;;
3849;SDS011;1940;51.052;13.678;2023-04-07T11:32:05;9.93;;;5.93;;
3849;SDS011;1940;51.052;13.678;2023-04-07T11:34:32;9.90;;;6.03;;
3849;SDS011;1940;51.052;13.678;2023-04-07T11:39:43;13.30;;;6.47;;
3849;SDS011;1940;51.052;13.678;2023-04-07T11:42:11;7.83;;;5.40;;
3849;SDS011;1940;51.052;13.678;2023-04-07T11:44:46;10.50;;;6.07;;
3849;SDS011;1940;51.052;13.678;2023-04-07T11:47:11;11.00;;;6.20;;
3849;SDS011;1940;51.052;13.678;2023-04-07T11:49:43;9.80;;;5.73;;
3849;SDS011;1940;51.052;13.678;2023-04-07T11:52:10;8.40;;;5.67;;
3849;SDS011;1940;51.052;13.678;2023-04-07T11:54:45;9.37;;;5.30;;
3849;SDS011;1940;51.052;13.678;2023-04-07T11:57:11;11.63;;;6.73;;
3849;SDS011;1940;51.052;13.678;2023-04-07T11:59:38;9.70;;;5.70;;
3849;SDS011;1940;51.052;13.678;2023-04-07T12:02:04;8.27;;;5.93;;
3849;SDS011;1940;51.052;13.678;2023-04-07T12:04:30;8.63;;;5.60;;
3849;SDS011;1940;51.052;13.678;2023-04-07T12:07:05;11.07;;;6.30;;
3849;SDS011;1940;51.052;13.678;2023-04-07T12:09:33;9.77;;;6.10;;
3849;SDS011;1940;51.052;13.678;2023-04-07T12:12:05;12.63;;;6.20;;
3849;SDS011;1940;51.052;13.678;2023-04-07T12:14:31;10.60;;;6.13;;
3849;SDS011;1940;51.052;13.678;2023-04-07T12:16:57;10.97;;;5.70;;
3849;SDS011;1940;51.052;13.678;2023-04-07T12:19:25;11.80;;;6.20;;
3849;SDS011;1940;51.052;13.678;2023-04-07T12:21:52;10.50;;;6.00;;
3849;SDS011;1940;51.052;13.678;2023-04-07T12:24:18;10.67;;;6.20;;
3849;SDS011;1940;51.052;13.678;2023-04-07T12:26:44;9.67;;;5.73;;
3849;SDS011;1940;51.052;13.678;2023-04-07T12:29:09;10.23;;;6.50;;
3849;SDS011;1940;51.052;13.678;2023-04-07T12:31:35;9.50;;;6.33;;
3849;SDS011;1940;51.052;13.678;2023-04-07T12:34:01;15.47;;;6.97;;
3849;SDS011;1940;51.052;13.678;2023-04-07T12:36:27;9.33;;;5.83;;
3849;SDS011;1940;51.052;13.678;2023-04-07T12:38:53;14.23;;;6.07;;
3849;SDS011;1940;51.052;13.678;2023-04-07T12:41:19;9.30;;;5.57;;
3849;SDS011;1940;51.052;13.678;2023-04-07T12:43:45;9.77;;;6.17;;
3849;SDS011;1940;51.052;13.678;2023-04-07T12:46:10;8.97;;;5.70;;
3849;SDS011;1940;51.052;13.678;2023-04-07T12:48:36;9.80;;;5.50;;
3849;SDS011;1940;51.052;13.678;2023-04-07T12:51:02;10.77;;;7.00;;
3849;SDS011;1940;51.052;13.678;2023-04-07T12:53:27;9.87;;;6.80;;
3849;SDS011;1940;51.052;13.678;2023-04-07T12:55:53;13.60;;;6.93;;
3849;SDS011;1940;51.052;13.678;2023-04-07T12:58:18;10.70;;;6.53;;
3849;SDS011;1940;51.052;13.678;2023-04-07T13:00:44;18.23;;;7.47;;
3849;SDS011;1940;51.052;13.678;2023-04-07T13:03:13;14.97;;;7.63;;
3849;SDS011;1940;51.052;13.678;2023-04-07T13:05:38;11.43;;;7.10;;
3849;SDS011;1940;51.052;13.678;2023-04-07T13:08:04;18.73;;;8.17;;
3849;SDS011;1940;51.052;13.678;2023-04-07T13:10:29;11.53;;;7.07;;
3849;SDS011;1940;51.052;13.678;2023-04-07T13:12:55;10.60;;;6.80;;
3849;SDS011;1940;51.052;13.678;2023-04-07T13:15:21;13.20;;;7.93;;
3849;SDS011;1940;51.052;13.678;2023-04-07T13:17:46;11.77;;;7.70;;
3849;SDS011;1940;51.052;13.678;2023-04-07T13:20:12;14.77;;;8.30;;
3849;SDS011;1940;51.052;13.678;2023-04-07T13:22:37;13.57;;;8.30;;
3849;SDS011;1940;51.052;13.678;2023-04-07T13:25:03;14.17;;;8.43;;
3849;SDS011;1940;51.052;13.678;2023-04-07T13:27:29;12.47;;;7.70;;
3849;SDS011;1940;51.052;13.678;2023-04-07T13:29:55;16.20;;;7.20;;
3849;SDS011;1940;51.052;13.678;2023-04-07T13:32:20;13.33;;;7.73;;
3849;SDS011;1940;51.052;13.678;2023-04-07T13:34:46;13.97;;;7.63;;
3849;SDS011;1940;51.052;13.678;2023-04-07T13:37:11;12.23;;;7.17;;
3849;SDS011;1940;51.052;13.678;2023-04-07T13:39:37;11.90;;;7.17;;
3849;SDS011;1940;51.052;13.678;2023-04-07T13:42:02;11.40;;;7.20;;
3849;SDS011;1940;51.052;13.678;2023-04-07T13:44:29;12.60;;;6.60;;
3849;SDS011;1940;51.052;13.678;2023-04-07T13:46:55;16.33;;;10.50;;
3849;SDS011;1940;51.052;13.678;2023-04-07T13:49:22;13.70;;;6.80;;
3849;SDS011;1940;51.052;13.678;2023-04-07T13:51:47;9.40;;;6.37;;
3849;SDS011;1940;51.052;13.678;2023-04-07T13:54:13;11.50;;;6.70;;
3849;SDS011;1940;51.052;13.678;2023-04-07T13:56:40;12.70;;;6.70;;
3849;SDS011;1940;51.052;13.678;2023-04-07T13:59:06;11.73;;;7.17;;
3849;SDS011;1940;51.052;13.678;2023-04-07T14:01:32;12.70;;;7.30;;
3849;SDS011;1940;51.052;13.678;2023-04-07T14:03:59;12.03;;;6.83;;
3849;SDS011;1940;51.052;13.678;2023-04-07T14:06:26;10.67;;;6.77;;
3849;SDS011;1940;51.052;13.678;2023-04-07T14:08:52;10.00;;;6.30;;
3849;SDS011;1940;51.052;13.678;2023-04-07T14:11:18;12.53;;;7.10;;
3849;SDS011;1940;51.052;13.678;2023-04-07T14:13:44;10.90;;;6.80;;
3849;SDS011;1940;51.052;13.678;2023-04-07T14:16:10;13.37;;;6.80;;
3849;SDS011;1940;51.052;13.678;2023-04-07T14:18:36;11.23;;;7.43;;
3849;SDS011;1940;51.052;13.678;2023-04-07T14:21:02;17.63;;;7.83;;
3849;SDS011;1940;51.052;13.678;2023-04-07T14:23:29;12.77;;;7.93;;
3849;SDS011;1940;51.052;13.678;2023-04-07T14:25:56;11.90;;;7.60;;
3849;SDS011;1940;51.052;13.678;2023-04-07T14:28:22;13.90;;;7.10;;
3849;SDS011;1940;51.052;13.678;2023-04-07T14:30:47;14.00;;;6.80;;
3849;SDS011;1940;51.052;13.678;2023-04-07T14:33:13;14.93;;;6.93;;
3849;SDS011;1940;51.052;13.678;2023-04-07T14:42:24;10.93;;;7.10;;
3849;SDS011;1940;51.052;13.678;2023-04-07T14:44:50;15.53;;;9.03;;
3849;SDS011;1940;51.052;13.678;2023-04-07T14:47:17;12.10;;;7.17;;
3849;SDS011;1940;51.052;13.678;2023-04-07T14:49:42;13.70;;;7.53;;
3849;SDS011;1940;51.052;13.678;2023-04-07T14:52:08;10.37;;;7.03;;
3849;SDS011;1940;51.052;13.678;2023-04-07T14:54:34;14.63;;;7.37;;
3849;SDS011;1940;51.052;13.678;2023-04-07T14:56:59;12.60;;;7.80;;
3849;SDS011;1940;51.052;13.678;2023-04-07T14:59:25;11.10;;;6.80;;
3849;SDS011;1940;51.052;13.678;2023-04-07T15:01:51;11.17;;;7.07;;
3849;SDS011;1940;51.052;13.678;2023-04-07T15:04:17;12.13;;;7.87;;
3849;SDS011;1940;51.052;13.678;2023-04-07T15:06:42;12.87;;;7.40;;
3849;SDS011;1940;51.052;13.678;2023-04-07T15:09:08;14.07;;;7.80;;
3849;SDS011;1940;51.052;13.678;2023-04-07T15:11:33;12.90;;;7.40;;